Estación de Combarbala

Ultimos registro cada 15 minutos 50
Estación Fecha / Hora Temperatura Humedad Lluvia Velocidad Dirección Radiación Presion
50 Combarbala 07-05-2026 12:15 21,3 15 0 1 270 630,6 912,9
49 Combarbala 07-05-2026 12:00 21,3 16,7 0 1 240 624,4 913,1
48 Combarbala 07-05-2026 11:45 20,6 20,5 0 1 282 609,4 913,5
47 Combarbala 07-05-2026 11:30 20,7 21,3 0 1 282 591,9 913,6
46 Combarbala 07-05-2026 11:15 20,7 24,6 0 0,5 298 574,4 914
45 Combarbala 07-05-2026 11:00 20,3 27,4 0 0,5 310 551,9 913,9
44 Combarbala 07-05-2026 10:45 19,7 35,5 0 0,5 310 523,1 914,1
43 Combarbala 07-05-2026 10:30 18,9 41,9 0 0,5 251 495,6 914,2
42 Combarbala 07-05-2026 10:15 17,7 48,5 0 0 236 464,4 914,3
41 Combarbala 07-05-2026 10:00 16,8 54,2 0 0,5 229 428,1 914,4
40 Combarbala 07-05-2026 09:45 15,5 60,4 0 0,5 159 389,4 914,5
39 Combarbala 07-05-2026 09:30 16,1 60,5 0 0 90 349,4 914,4
38 Combarbala 07-05-2026 09:15 16,3 61,9 0 0 90 308,1 914,5
37 Combarbala 07-05-2026 09:00 14,7 68 0 0 90 265,6 914,5
36 Combarbala 07-05-2026 08:45 13,3 72,8 0 0 90 221,9 914,4
35 Combarbala 07-05-2026 08:30 13,4 75,4 0 0 90 179,4 914,3
34 Combarbala 07-05-2026 08:15 12 80,9 0 0 90 144,4 914,6
33 Combarbala 07-05-2026 08:00 9,9 89,9 0 0 90 104,4 914,6
32 Combarbala 07-05-2026 07:45 8,4 91,4 0 0 90 9,4 914,5
31 Combarbala 07-05-2026 07:30 8,2 92,1 0 0 90 5,6 914,2
30 Combarbala 07-05-2026 07:15 8,1 92 0 0 90 0,6 914,3
29 Combarbala 07-05-2026 07:00 8,1 91,6 0 0 90 0,6 914,4
28 Combarbala 07-05-2026 06:45 8,2 91,8 0 0 90 0,6 914,3
27 Combarbala 07-05-2026 06:30 8,9 91,1 0 0 90 0,6 913,8
26 Combarbala 07-05-2026 06:15 9 90,3 0 0 90 0,6 913,8
25 Combarbala 07-05-2026 06:00 9,3 89,8 0 0 90 0,6 913,8
24 Combarbala 07-05-2026 05:45 9,4 89,6 0 0 90 0,6 913,5
23 Combarbala 07-05-2026 05:30 9,5 88,7 0 0 90 0,6 913,4
22 Combarbala 07-05-2026 05:15 10,2 86,7 0 0,5 107 0,6 913,3
21 Combarbala 07-05-2026 05:00 10,8 85,3 0 0,5 197 0,6 913,2
20 Combarbala 07-05-2026 04:45 11,1 83,7 0 0 212 0,6 912,9
19 Combarbala 07-05-2026 04:30 11,7 82,5 0 0 223 0,6 913,1
18 Combarbala 07-05-2026 04:15 11,9 82,7 0 0,5 212 0,6 913,1
17 Combarbala 07-05-2026 04:00 11,3 85,7 0 1,5 218 0,6 913
16 Combarbala 07-05-2026 03:45 11 86,1 0 1,5 211 0,6 912,8
15 Combarbala 07-05-2026 03:30 11,7 84 0 0 170 0,6 912,8
14 Combarbala 07-05-2026 03:15 11,7 84 0 0 185 0,6 912,7
13 Combarbala 07-05-2026 03:00 12 83,4 0 0 219 0,6 912,8
12 Combarbala 07-05-2026 02:45 12,2 82,9 0 0 199 0,6 913
11 Combarbala 07-05-2026 02:30 12,1 83,5 0 0 199 0,6 913,1
10 Combarbala 07-05-2026 02:15 12,1 83,9 0 0 185 0,6 913
9 Combarbala 07-05-2026 02:00 12,2 84 0 0 180 0,6 913
8 Combarbala 07-05-2026 01:45 12,2 84,1 0 0 180 0,6 912,9
7 Combarbala 07-05-2026 01:30 12,5 83,8 0 0 184 0,6 913
6 Combarbala 07-05-2026 01:15 12,5 84,2 0 1 218 0,6 912,9
5 Combarbala 07-05-2026 01:00 12,2 86 0 1,5 216 0,6 913
4 Combarbala 07-05-2026 00:45 12,4 85 0 2 218 0,6 913,1
3 Combarbala 07-05-2026 00:30 12,6 84,4 0 1,5 215 0,6 913,1
2 Combarbala 07-05-2026 00:15 12,6 84,9 0 1,5 218 0,6 912,9
1 Combarbala 07-05-2026 00:00 12,7 84,4 0 1,5 222 0,6 912,9